Time;durP1;ratioP1;P1;durP2;ratioP2;P2;SDS_P1;SDS_P2;PMS_P1;PMS_P2;Temp;Humidity;BMP_temperature;BMP_pressure;BME280_temperature;BME280_humidity;BME280_pressure;Samples;Min_cycle;Max_cycle;Signal;HPM_P1;HPM_P2
2022/05/29 00:00:57;;;;;;;9.10;2.10;;;12.10;94.10;;;12.92;74.45;98042.75;4958842;28;20519;-82
2022/05/29 00:03:28;;;;;;;11.03;2.17;;;12.10;93.50;;;12.92;73.99;98045.38;4958870;28;20466;-82
2022/05/29 00:05:58;;;;;;;4.33;1.60;;;12.10;93.40;;;12.87;74.45;98042.56;4959173;28;20462;-82
2022/05/29 00:08:34;;;;;;;4.47;1.80;;;12.10;93.40;;;12.80;73.57;98042.56;4961835;28;20461;-81
2022/05/29 00:11:04;;;;;;;5.47;1.87;;;12.10;93.20;;;12.81;73.50;98035.47;4958567;28;20468;-81
2022/05/29 00:13:34;;;;;;;7.47;2.63;;;12.10;93.30;;;12.80;73.31;98036.50;4960707;28;20943;-83
2022/05/29 00:16:05;;;;;;;8.90;1.83;;;12.00;93.20;;;12.76;72.76;98032.66;4959407;28;20473;-84
2022/05/29 00:18:38;;;;;;;3.67;1.60;;;12.00;93.00;;;12.75;73.18;98033.66;4958482;28;20532;-82
2022/05/29 00:21:08;;;;;;;7.37;1.77;;;11.90;93.30;;;12.83;73.12;98036.09;4959560;28;20579;-82
2022/05/29 00:23:44;;;;;;;7.93;2.20;;;12.00;93.30;;;12.87;73.40;98032.88;4960558;28;20484;-82
2022/05/29 00:26:16;;;;;;;14.83;1.60;;;12.00;93.90;;;12.82;73.17;98031.84;4960216;28;20532;-82
2022/05/29 00:28:46;;;;;;;10.53;1.83;;;12.00;93.30;;;12.78;73.41;98033.25;4958242;28;20461;-82
2022/05/29 00:31:16;;;;;;;3.83;1.67;;;11.90;93.50;;;12.80;73.47;98033.88;4959822;28;21199;-82
2022/05/29 00:33:47;;;;;;;9.53;1.70;;;12.00;93.50;;;12.78;73.62;98025.41;4959039;28;20511;-82
2022/05/29 00:36:19;;;;;;;5.50;1.67;;;12.00;93.60;;;12.70;73.87;98021.19;4959155;28;20465;-82
2022/05/29 00:38:50;;;;;;;7.60;2.10;;;11.80;93.50;;;12.72;73.60;98019.16;4961261;28;20475;-82
2022/05/29 00:41:27;;;;;;;6.67;2.23;;;11.80;93.40;;;12.69;73.50;98018.75;4958934;28;20572;-81
2022/05/29 00:44:16;;;;;;;4.67;1.60;;;11.90;93.50;;;12.69;74.45;98013.50;4958897;28;20464;-82
2022/05/29 00:46:49;;;;;;;11.00;2.00;;;12.00;93.70;;;12.63;75.43;98021.13;4958358;28;20490;-82
2022/05/29 00:49:23;;;;;;;6.87;1.70;;;11.80;94.00;;;12.60;75.63;98018.91;4962962;28;20548;-82
2022/05/29 00:52:00;;;;;;;10.13;1.93;;;11.80;93.90;;;12.63;75.64;98024.78;4958006;28;20534;-82
2022/05/29 00:54:42;;;;;;;3.00;1.33;;;11.80;94.10;;;12.66;76.34;98016.53;4962754;28;20503;-82
2022/05/29 00:57:17;;;;;;;3.90;1.70;;;11.80;94.10;;;12.71;75.91;98016.72;4959262;28;20451;-82
2022/05/29 00:59:48;;;;;;;4.60;1.80;;;11.90;94.10;;;12.71;76.79;98016.72;4958664;28;20448;-82
2022/05/29 01:02:19;;;;;;;10.53;1.80;;;11.80;94.30;;;12.72;76.79;98016.53;4958565;28;20458;-82
2022/05/29 01:04:49;;;;;;;8.30;1.73;;;11.90;94.20;;;12.69;77.29;98010.88;4957551;28;20473;-82
2022/05/29 01:07:23;;;;;;;6.10;1.70;;;11.80;94.30;;;12.70;77.10;98010.69;4960318;28;21163;-82
2022/05/29 01:09:56;;;;;;;6.53;2.17;;;11.80;94.60;;;12.73;77.59;98012.91;4958522;28;20468;-82
2022/05/29 01:12:40;;;;;;;14.03;2.50;;;11.80;94.50;;;12.59;76.93;98009.47;4961006;28;20454;-82
2022/05/29 01:15:29;;;;;;;10.57;2.10;;;11.80;94.10;;;12.56;76.93;98014.31;4963071;28;20488;-82
2022/05/29 01:18:18;;;;;;;4.37;1.90;;;11.80;94.10;;;12.56;77.32;98014.31;4961236;28;20453;-82
2022/05/29 01:21:10;;;;;;;5.33;1.47;;;11.70;94.20;;;12.53;77.87;98005.00;4958976;28;20508;-81
2022/05/29 01:24:25;;;;;;;3.43;1.67;;;11.70;94.40;;;12.48;78.01;97999.56;4961857;28;20472;-81
2022/05/29 01:27:34;;;;;;;9.90;1.97;;;11.70;94.50;;;12.46;78.53;98000.78;4961005;28;20543;-82
2022/05/29 01:30:13;;;;;;;7.43;2.00;;;11.70;94.40;;;12.42;78.68;98010.84;4947996;28;20520;-82
2022/05/29 01:33:04;;;;;;;5.53;1.57;;;11.70;94.60;;;12.38;78.98;97996.50;4963456;28;20946;-82
2022/05/29 01:35:44;;;;;;;3.77;1.50;;;11.60;94.50;;;12.37;80.06;98000.13;4965655;28;20478;-82
2022/05/29 01:38:25;;;;;;;11.23;2.30;;;11.50;94.90;;;12.38;79.60;98000.94;4959924;28;20477;-82
2022/05/29 01:41:02;;;;;;;12.27;2.43;;;11.60;94.60;;;12.35;79.42;98001.34;4963897;28;20923;-82
2022/05/29 01:43:41;;;;;;;8.97;1.87;;;11.50;94.60;;;12.29;79.81;97997.69;4961433;28;20456;-82
2022/05/29 01:46:21;;;;;;;9.87;2.60;;;11.50;94.70;;;12.23;79.87;97993.25;4961333;28;20465;-82
2022/05/29 01:49:01;;;;;;;5.87;1.70;;;11.50;94.60;;;12.18;81.06;97995.69;4960566;28;21025;-82
2022/05/29 01:51:47;;;;;;;3.93;1.60;;;11.50;94.80;;;12.06;80.83;97994.63;4959145;28;20464;-83
2022/05/29 01:54:25;;;;;;;11.40;2.03;;;11.40;94.60;;;12.05;81.77;97990.38;4961342;28;21066;-82
2022/05/29 01:57:04;;;;;;;6.43;1.77;;;11.30;95.00;;;12.05;82.54;97990.38;4962454;28;20523;-82
2022/05/29 01:59:39;;;;;;;13.00;2.10;;;11.30;95.20;;;12.02;82.15;97988.16;4963535;28;20519;-82
2022/05/29 02:02:17;;;;;;;8.43;2.00;;;11.30;95.00;;;12.02;82.50;97985.53;4963000;28;20453;-82
2022/05/29 02:04:53;;;;;;;14.20;2.43;;;11.20;95.20;;;12.08;83.03;97989.97;4961654;28;21016;-82
2022/05/29 02:10:28;;;;;;;15.10;2.30;;;11.30;95.20;;;11.98;83.89;97989.53;4962321;28;20791;-82
2022/05/29 02:13:09;;;;;;;11.77;2.03;;;11.20;95.30;;;12.03;83.49;97987.16;4963482;28;20446;-83
2022/05/29 02:15:47;;;;;;;6.80;1.90;;;11.20;95.30;;;12.01;83.34;97983.91;4963704;28;20552;-82
2022/05/29 02:18:25;;;;;;;3.00;1.50;;;11.20;95.30;;;12.00;83.11;97987.56;4963571;28;20515;-82
2022/05/29 02:21:05;;;;;;;9.30;2.20;;;11.20;95.30;;;12.02;83.48;97983.72;4961993;28;20461;-82
2022/05/29 02:23:42;;;;;;;9.67;2.20;;;11.20;95.50;;;12.03;83.65;97987.16;4961554;28;20462;-82
2022/05/29 02:26:25;;;;;;;6.50;1.90;;;11.20;95.40;;;11.98;83.73;97984.31;4961069;28;20474;-82
2022/05/29 02:29:04;;;;;;;6.27;2.10;;;11.20;95.40;;;11.87;84.90;97985.69;4962615;28;20469;-83
2022/05/29 02:31:47;;;;;;;6.13;2.10;;;11.10;95.70;;;11.76;86.02;97973.16;4961660;28;20469;-82
2022/05/29 02:34:32;;;;;;;6.33;1.70;;;10.80;96.10;;;11.75;86.43;97978.59;4961488;28;20580;-82
2022/05/29 02:37:15;;;;;;;5.53;2.00;;;10.80;96.20;;;11.68;86.26;97980.34;4961741;28;20465;-82
2022/05/29 02:40:01;;;;;;;5.63;2.00;;;10.80;95.90;;;11.69;86.13;97976.72;4960676;28;20456;-82
2022/05/29 02:42:42;;;;;;;8.00;1.87;;;10.80;96.00;;;11.64;86.42;97969.44;4959927;28;20496;-82
2022/05/29 02:45:24;;;;;;;10.77;2.17;;;10.80;96.10;;;11.58;87.91;97968.44;4961063;28;20496;-82
2022/05/29 02:48:09;;;;;;;9.63;2.43;;;10.90;96.20;;;11.52;88.10;97974.41;4960500;28;20854;-82
2022/05/29 02:50:48;;;;;;;6.83;1.87;;;10.80;96.10;;;11.45;89.24;97968.34;4961103;28;20544;-82
2022/05/29 02:53:19;;;;;;;5.63;1.83;;;10.70;96.40;;;11.42;89.55;97968.75;4957942;28;20461;-81
2022/05/29 02:55:51;;;;;;;8.07;2.10;;;10.70;96.30;;;11.39;89.96;97963.91;4960873;28;20555;-82
2022/05/29 02:58:27;;;;;;;7.53;2.00;;;10.70;96.40;;;11.35;90.10;97961.88;4960046;28;20520;-82
2022/05/29 03:01:20;;;;;;;9.13;1.60;;;10.70;96.40;;;11.32;90.40;97957.81;4963231;28;20466;-82
2022/05/29 03:04:28;;;;;;;4.83;1.80;;;10.70;96.50;;;11.30;90.78;97951.16;4957875;28;21040;-82
2022/05/29 03:07:10;;;;;;;12.57;1.93;;;10.50;96.70;;;11.24;92.24;97950.16;4960120;28;21091;-82
2022/05/29 03:09:50;;;;;;;8.20;2.10;;;10.40;96.90;;;11.22;91.79;97940.84;4966870;28;20851;-81
2022/05/29 03:12:56;;;;;;;9.67;2.17;;;10.30;97.00;;;11.26;91.62;97942.88;4958802;28;21434;-82
2022/05/29 03:15:42;;;;;;;4.27;2.00;;;10.40;97.10;;;11.26;91.46;97947.31;4964761;28;20497;-82
2022/05/29 03:18:35;;;;;;;13.53;2.33;;;10.50;96.90;;;11.25;91.76;97950.91;4961306;28;20469;-82
2022/05/29 03:21:15;;;;;;;13.23;3.40;;;10.50;96.80;;;11.21;91.83;97950.50;4959057;28;20469;-83
2022/05/29 03:23:57;;;;;;;11.57;2.37;;;10.50;96.80;;;11.13;92.61;97952.47;4960431;28;20556;-83
2022/05/29 03:26:39;;;;;;;5.60;1.93;;;10.50;96.90;;;11.08;92.60;97960.91;4960052;28;20464;-83
2022/05/29 03:29:17;;;;;;;6.03;1.97;;;10.40;96.90;;;11.01;93.59;97953.00;4960024;28;20467;-83
2022/05/29 03:31:49;;;;;;;11.03;2.97;;;10.30;97.10;;;10.90;94.68;97953.53;4958405;28;20555;-75
2022/05/29 03:34:23;;;;;;;6.27;2.67;;;10.20;97.20;;;10.82;95.03;97939.81;4956541;28;21035;-76
2022/05/29 03:36:54;;;;;;;12.40;2.93;;;10.20;97.20;;;10.77;96.16;97952.63;4959130;28;20466;-76
2022/05/29 03:39:25;;;;;;;11.70;2.70;;;10.10;97.40;;;10.70;97.18;97943.94;4957288;28;20568;-76
2022/05/29 03:41:56;;;;;;;13.20;3.00;;;10.10;97.60;;;10.63;98.81;97948.31;4962243;28;20481;-76
2022/05/29 03:44:27;;;;;;;9.40;3.00;;;9.90;98.40;;;10.56;98.86;97941.22;4957251;28;20549;-77
2022/05/29 03:46:56;;;;;;;9.20;2.17;;;9.90;98.30;;;10.56;98.96;97946.44;4957736;28;21088;-76
2022/05/29 03:49:26;;;;;;;5.87;2.10;;;9.90;98.50;;;10.57;99.00;97942.84;4955467;28;21028;-76
2022/05/29 03:51:57;;;;;;;8.50;3.23;;;9.80;98.40;;;10.58;99.21;97946.28;4957876;28;20501;-77
2022/05/29 03:54:29;;;;;;;7.73;2.17;;;9.80;98.60;;;10.60;98.95;97946.88;4962981;28;20461;-88
2022/05/29 03:57:00;;;;;;;17.77;7.40;;;9.90;98.50;;;10.59;99.29;97953.09;4963075;28;20520;-76
2022/05/29 03:59:31;;;;;;;5.87;2.33;;;9.80;98.60;;;10.55;99.33;97955.28;4958652;28;20462;-76
2022/05/29 04:02:02;;;;;;;8.93;2.03;;;9.80;98.70;;;10.61;98.94;97953.75;4954084;28;20501;-77
2022/05/29 04:04:33;;;;;;;12.60;2.77;;;9.80;98.70;;;10.66;99.16;97950.53;4957263;28;20468;-76
2022/05/29 04:07:03;;;;;;;5.27;2.10;;;9.90;98.80;;;10.65;99.32;97954.97;4956331;28;20472;-76
2022/05/29 04:12:22;;;;;;;7.63;3.00;;;9.80;99.00;;;10.66;98.97;97959.19;4958340;28;20499;-76
2022/05/29 04:14:56;;;;;;;12.53;5.83;;;9.80;98.80;;;10.68;98.57;97965.06;4961815;28;20484;-89
2022/05/29 04:17:26;;;;;;;13.53;3.67;;;9.80;98.80;;;10.68;98.33;97953.78;4964927;28;20540;-77
2022/05/29 04:20:00;;;;;;;7.30;2.00;;;9.90;98.60;;;10.68;99.07;97952.00;4954530;28;20457;-77
2022/05/29 04:22:33;;;;;;;6.13;2.13;;;9.90;98.80;;;10.66;100.00;97950.53;4955544;28;20468;-76
2022/05/29 04:25:04;;;;;;;10.87;2.17;;;9.90;98.90;;;10.64;100.00;97948.13;4956409;28;20474;-76
2022/05/29 04:27:34;;;;;;;3.60;1.87;;;9.80;99.00;;;10.65;99.67;97941.91;4957373;28;20479;-76
2022/05/29 04:30:08;;;;;;;6.27;2.27;;;9.90;98.90;;;10.67;100.00;97949.53;4956736;28;20500;-76
2022/05/29 04:35:25;;;;;;;3.73;1.77;;;9.90;99.00;;;10.72;100.00;97949.81;4957909;28;20488;-76
2022/05/29 04:37:56;;;;;;;6.17;1.93;;;10.00;98.50;;;10.71;100.00;97949.00;4952655;28;20466;-76
2022/05/29 04:40:30;;;;;;;5.27;2.00;;;10.00;98.50;;;10.76;100.00;97945.81;4956782;28;20472;-77
2022/05/29 04:43:00;;;;;;;7.77;2.40;;;10.00;98.60;;;10.73;100.00;97948.78;4955061;28;20473;-76
2022/05/29 04:45:30;;;;;;;6.43;2.87;;;10.00;98.40;;;10.66;100.00;97945.31;4958180;28;20464;-77
2022/05/29 04:48:00;;;;;;;7.03;2.27;;;9.90;99.10;;;10.71;100.00;97949.00;4957464;28;20572;-77
2022/05/29 04:50:30;;;;;;;10.90;2.30;;;9.90;99.20;;;10.71;100.00;97943.75;4954287;28;20967;-77
2022/05/29 04:53:03;;;;;;;8.10;2.20;;;10.00;98.40;;;10.74;100.00;97948.59;4955056;28;20480;-76
2022/05/29 04:55:36;;;;;;;10.10;2.77;;;10.00;98.60;;;10.77;100.00;97950.03;4957327;28;20484;-76
2022/05/29 04:58:06;;;;;;;5.77;2.33;;;10.00;98.70;;;10.82;100.00;97947.66;4958850;28;20489;-87
2022/05/29 05:00:37;;;;;;;6.50;2.53;;;9.90;99.20;;;10.88;100.00;97944.28;4954872;28;20461;-77
2022/05/29 05:03:07;;;;;;;19.57;3.00;;;10.00;98.80;;;10.92;100.00;97929.81;4956177;28;20472;-77
2022/05/29 05:05:37;;;;;;;3.83;2.20;;;10.00;98.70;;;10.93;100.00;97929.59;4958822;28;20559;-77
2022/05/29 05:08:10;;;;;;;18.63;3.00;;;10.10;98.80;;;10.96;100.00;97931.88;4956628;28;20461;-75
2022/05/29 05:10:41;;;;;;;12.33;3.70;;;10.10;99.00;;;10.92;100.00;97928.00;4960749;28;21042;-76
2022/05/29 05:13:11;;;;;;;5.80;3.30;;;10.10;98.90;;;10.94;100.00;97933.84;4960430;28;20493;-76
2022/05/29 05:15:40;;;;;;;9.80;3.10;;;10.10;99.20;;;10.92;100.00;97930.63;4957097;28;20517;-77
2022/05/29 05:18:10;;;;;;;8.60;3.23;;;10.10;98.90;;;10.94;100.00;97925.19;4959161;28;20473;-77
2022/05/29 05:20:40;;;;;;;3.80;2.87;;;10.00;99.20;;;10.98;100.00;97926.41;4960925;28;20497;-78
2022/05/29 05:23:10;;;;;;;10.23;2.90;;;10.20;98.90;;;11.00;100.00;97929.66;4959978;28;21339;-76
2022/05/29 05:25:41;;;;;;;11.93;2.90;;;10.10;99.20;;;11.02;100.00;97933.72;4961064;28;20710;-77
2022/05/29 05:28:11;;;;;;;8.67;3.00;;;10.10;99.10;;;11.05;100.00;97937.75;4960584;28;20468;-76
2022/05/29 05:30:41;;;;;;;8.73;3.13;;;10.10;98.90;;;11.02;100.00;97935.50;4960121;28;20512;-77
2022/05/29 05:33:11;;;;;;;6.50;3.10;;;10.20;98.60;;;11.03;100.00;97926.66;4954429;28;20469;-76
2022/05/29 05:35:48;;;;;;;9.33;4.07;;;10.10;98.50;;;11.07;99.70;97933.13;4957997;28;20579;-76
2022/05/29 05:38:17;;;;;;;8.80;3.17;;;10.30;98.60;;;11.07;100.00;97933.91;4959456;28;20476;-77
2022/05/29 05:40:49;;;;;;;7.50;3.90;;;10.20;98.80;;;11.02;99.57;97923.25;4958330;28;20468;-77
2022/05/29 05:43:22;;;;;;;11.17;3.20;;;10.20;98.60;;;11.01;99.90;97924.22;4960027;28;20467;-76
2022/05/29 05:45:53;;;;;;;7.50;3.33;;;10.20;98.70;;;11.05;100.00;97924.66;4961446;28;20481;-76
2022/05/29 05:48:23;;;;;;;5.83;2.90;;;10.10;99.00;;;10.99;100.00;97928.03;4956280;28;20496;-76
2022/05/29 05:50:57;;;;;;;14.43;4.33;;;10.10;98.90;;;11.00;100.00;97933.06;4963362;28;20562;-76
2022/05/29 05:53:27;;;;;;;7.10;3.80;;;10.10;99.10;;;10.94;100.00;97933.84;4959775;28;20495;-76
2022/05/29 05:56:06;;;;;;;6.20;3.40;;;10.00;99.10;;;10.99;100.00;97920.19;4956873;28;20495;-76
2022/05/29 05:58:37;;;;;;;7.43;3.20;;;10.20;98.90;;;10.99;100.00;97928.03;4958465;28;20460;-76
2022/05/29 06:01:10;;;;;;;10.43;3.50;;;10.20;99.10;;;10.93;100.00;97929.59;4958927;28;20964;-77
2022/05/29 06:03:40;;;;;;;7.93;3.37;;;10.20;98.90;;;10.92;100.00;97929.81;4960142;28;20468;-77
2022/05/29 06:06:13;;;;;;;6.77;3.53;;;10.10;99.00;;;10.88;100.00;97928.56;4957944;28;20462;-76
2022/05/29 06:08:43;;;;;;;7.00;3.40;;;10.00;99.10;;;10.90;100.00;97932.59;4959962;28;20470;-76
2022/05/29 06:11:16;;;;;;;9.20;3.60;;;10.00;99.10;;;10.85;100.00;97923.72;4957567;28;20498;-76
2022/05/29 06:13:46;;;;;;;5.40;2.83;;;10.00;99.20;;;10.84;100.00;97932.56;4960377;28;20504;-77
2022/05/29 06:16:17;;;;;;;6.80;3.07;;;10.10;99.10;;;10.85;100.00;97928.97;4958706;28;20525;-77
2022/05/29 06:18:50;;;;;;;7.60;2.60;;;10.10;99.00;;;10.80;100.00;97921.69;4957665;28;20487;-77
2022/05/29 06:21:20;;;;;;;9.43;3.23;;;10.10;98.90;;;10.87;100.00;97929.56;4960652;28;20497;-77
2022/05/29 06:23:52;;;;;;;14.33;3.53;;;10.10;99.10;;;10.85;100.00;97928.97;4959982;28;20523;-76
2022/05/29 06:26:25;;;;;;;21.80;8.87;;;10.00;98.70;;;10.89;100.00;97930.19;4960384;28;20499;-76
2022/05/29 06:31:45;;;;;;;11.47;3.53;;;10.10;98.70;;;11.00;100.00;97934.91;4960980;28;20835;-76
2022/05/29 06:34:15;;;;;;;6.47;3.03;;;10.10;98.60;;;10.99;100.00;97920.19;4958302;28;20460;-76
2022/05/29 06:36:45;;;;;;;6.40;3.53;;;10.10;98.50;;;11.06;99.50;97926.28;4956991;28;21074;-76
2022/05/29 06:39:16;;;;;;;10.83;3.90;;;10.20;98.60;;;11.09;99.75;97921.47;4955604;28;20968;-76
2022/05/29 06:41:48;;;;;;;7.60;3.20;;;10.30;98.60;;;11.03;98.56;97924.06;4956918;28;20473;-76
2022/05/29 06:44:20;;;;;;;6.27;3.10;;;10.20;98.10;;;11.02;98.13;97919.81;4959166;28;20461;-77
2022/05/29 06:46:51;;;;;;;8.70;3.00;;;10.10;98.50;;;11.10;98.11;97917.03;4958216;28;20527;-77
2022/05/29 06:49:21;;;;;;;11.03;3.60;;;10.30;98.50;;;11.18;98.38;97909.00;4958123;28;20468;-76
2022/05/29 06:51:51;;;;;;;6.30;3.17;;;10.30;98.40;;;11.27;98.94;97918.34;4955919;28;21250;-76
2022/05/29 06:54:23;;;;;;;7.37;2.93;;;10.30;98.50;;;11.36;97.74;97921.59;4957458;28;20493;-76
2022/05/29 06:56:54;;;;;;;8.70;3.20;;;10.40;98.40;;;11.44;97.18;97913.56;4958446;28;20484;-77
2022/05/29 06:59:24;;;;;;;11.40;2.43;;;10.50;98.20;;;11.47;96.36;97919.22;4955082;28;20472;-76
2022/05/29 07:07:30;;;;;;;10.37;2.70;;;10.70;97.70;;;11.47;93.80;97924.47;4958518;28;20468;-76
2022/05/29 07:10:01;;;;;;;8.20;2.83;;;10.60;97.50;;;11.40;92.03;97922.81;4959215;28;20457;-77
2022/05/29 07:12:34;;;;;;;7.17;2.63;;;10.70;97.10;;;11.45;92.37;97920.44;4961601;28;20466;-88
2022/05/29 07:15:08;;;;;;;9.30;2.43;;;10.70;97.10;;;11.45;91.92;97926.44;4961097;28;20467;-76
2022/05/29 07:17:38;;;;;;;6.00;2.80;;;10.80;97.00;;;11.44;90.87;97916.19;4954226;28;20528;-76
2022/05/29 07:20:10;;;;;;;5.37;2.53;;;10.80;96.80;;;11.48;91.75;97918.22;4956528;28;20481;-76
2022/05/29 07:22:41;;;;;;;8.80;2.40;;;10.80;97.00;;;11.44;89.84;97918.81;4958913;28;20479;-76
2022/05/29 07:25:14;;;;;;;5.33;2.00;;;10.90;96.50;;;11.51;91.52;97911.78;4953255;28;20471;-75
2022/05/29 07:27:44;;;;;;;5.90;2.50;;;10.80;96.90;;;11.49;90.08;97919.81;4956850;28;20568;-75
2022/05/29 07:30:15;;;;;;;7.37;2.47;;;10.70;96.40;;;11.56;89.50;97909.38;4958439;28;20470;-75
2022/05/29 07:32:47;;;;;;;6.60;2.13;;;10.80;96.70;;;11.64;90.42;97909.22;4958144;28;20839;-75
2022/05/29 07:35:18;;;;;;;3.17;2.30;;;10.90;97.00;;;11.63;86.36;97916.25;4957263;28;20485;-76
2022/05/29 07:37:48;;;;;;;4.77;2.13;;;11.00;95.70;;;11.71;87.16;97910.06;4958347;28;20497;-76
2022/05/29 07:40:19;;;;;;;9.70;2.70;;;11.00;96.10;;;11.75;86.13;97916.53;4955735;28;20464;-76
2022/05/29 07:45:37;;;;;;;4.40;2.53;;;11.10;95.60;;;11.73;81.57;97917.75;4956045;28;20476;-75
2022/05/29 07:48:08;;;;;;;4.30;2.40;;;11.10;94.50;;;11.76;81.82;97912.09;4956462;28;20492;-76
2022/05/29 07:50:39;;;;;;;7.97;2.97;;;11.10;94.80;;;11.80;82.51;97913.34;4956071;28;20475;-75
2022/05/29 07:53:08;;;;;;;5.70;2.73;;;11.20;95.00;;;11.79;82.35;97906.47;4955657;28;20996;-76
2022/05/29 07:55:38;;;;;;;6.33;2.67;;;11.20;94.90;;;11.88;82.40;97906.06;4957183;28;20545;-76
2022/05/29 07:58:10;;;;;;;6.17;2.60;;;11.30;95.00;;;11.97;81.64;97904.09;4957372;28;20493;-76
2022/05/29 08:00:40;;;;;;;8.50;4.50;;;11.30;94.70;;;12.08;81.50;97903.47;4957937;28;20461;-75
2022/05/29 08:03:11;;;;;;;6.90;2.83;;;11.40;94.80;;;12.22;81.20;97907.72;4957312;28;20521;-76
2022/05/29 08:05:41;;;;;;;13.77;2.93;;;11.50;94.80;;;12.32;80.16;97902.91;4955936;28;20539;-75
2022/05/29 08:08:13;;;;;;;10.70;2.93;;;11.60;94.50;;;12.40;79.39;97905.31;4960456;28;20496;-75
2022/05/29 08:10:45;;;;;;;3.50;2.47;;;11.60;94.50;;;12.45;78.41;97905.53;4962661;28;20449;-75
2022/05/29 08:13:16;;;;;;;5.00;2.53;;;11.70;94.30;;;12.46;74.07;97906.34;4957725;28;20987;-75
2022/05/29 08:15:47;;;;;;;6.23;2.50;;;11.80;92.80;;;12.43;71.36;97906.72;4959822;28;20524;-75
2022/05/29 08:18:17;;;;;;;6.50;2.87;;;11.80;92.30;;;12.43;70.45;97904.91;4961294;28;20484;-75
2022/05/29 08:20:46;;;;;;;4.87;2.50;;;11.70;92.10;;;12.48;70.23;97902.50;4960178;28;20459;-76
2022/05/29 08:23:21;;;;;;;53.60;23.47;;;11.80;92.00;;;12.54;69.45;97906.94;4965860;28;21023;-76
2022/05/29 08:31:26;;;;;;;5.57;2.63;;;11.90;92.50;;;12.72;70.04;97892.38;4959706;28;20544;-75
2022/05/29 08:33:56;;;;;;;7.67;3.40;;;11.90;92.30;;;12.73;69.47;97894.81;4960924;28;20482;-76
2022/05/29 08:36:28;;;;;;;4.60;2.73;;;11.90;92.30;;;12.81;69.02;97888.53;4961768;28;20449;-76
2022/05/29 08:38:57;;;;;;;3.63;2.30;;;12.00;92.20;;;12.87;69.04;97895.59;4961319;28;20481;-76
2022/05/29 08:41:40;;;;;;;6.07;2.20;;;12.10;92.20;;;12.97;68.69;97885.50;4963771;28;20464;-76
2022/05/29 08:44:17;;;;;;;3.60;2.17;;;12.20;92.20;;;13.08;68.68;97888.25;4962706;28;20552;-76
2022/05/29 08:46:52;;;;;;;6.83;2.70;;;12.30;92.20;;;13.12;67.74;97899.19;4964670;28;20464;-76
2022/05/29 08:49:29;;;;;;;3.17;2.10;;;12.40;92.00;;;13.03;63.54;97892.53;4964338;28;20859;-76
2022/05/29 08:52:12;;;;;;;4.27;2.60;;;12.40;90.50;;;13.02;63.34;97888.28;4964327;28;20948;-75
2022/05/29 08:54:51;;;;;;;4.10;1.97;;;12.40;90.60;;;12.96;61.11;97894.38;4966246;28;20441;-76
2022/05/29 08:57:52;;;;;;;3.67;2.10;;;12.40;89.30;;;12.97;59.20;97894.16;4961479;28;20555;-76
2022/05/29 09:00:35;;;;;;;5.33;1.90;;;12.40;88.10;;;13.06;60.38;97885.06;4964128;28;20453;-76
2022/05/29 09:03:52;;;;;;;3.17;2.23;;;12.50;89.50;;;13.07;61.99;97889.28;4961427;28;20444;-76
2022/05/29 09:06:29;;;;;;;2.97;2.13;;;12.40;90.40;;;13.07;60.80;97885.84;4963068;28;20472;-76
2022/05/29 09:09:09;;;;;;;5.67;2.47;;;12.40;89.80;;;13.04;59.37;97884.47;4964447;28;20461;-76
2022/05/29 09:11:48;;;;;;;2.70;2.00;;;12.40;88.30;;;13.03;58.95;97895.16;4962534;28;20960;-77
2022/05/29 09:14:24;;;;;;;8.80;2.30;;;12.50;88.10;;;13.04;57.88;97879.22;4963704;28;20460;-76
2022/05/29 09:17:03;;;;;;;4.47;1.97;;;12.40;87.40;;;13.08;57.27;97871.72;4964168;28;20528;-76
2022/05/29 09:19:43;;;;;;;7.07;2.47;;;12.50;86.80;;;13.09;57.01;97874.16;4964335;28;20452;-75
2022/05/29 09:22:21;;;;;;;5.00;1.90;;;12.50;86.40;;;13.16;57.50;97868.88;4963074;28;20502;-76
2022/05/29 09:25:06;;;;;;;3.20;1.90;;;12.40;87.60;;;13.20;58.11;97870.09;4964218;28;20456;-76
2022/05/29 09:27:43;;;;;;;2.47;1.93;;;12.50;87.70;;;13.21;56.95;97876.97;4963019;28;20492;-76
2022/05/29 09:30:13;;;;;;;2.57;2.00;;;12.50;86.60;;;13.20;56.19;97875.34;4964818;28;20476;-76
2022/05/29 09:32:53;;;;;;;5.17;1.47;;;12.40;85.90;;;13.23;55.40;97863.59;4962654;28;20536;-76
2022/05/29 09:35:33;;;;;;;5.23;1.73;;;12.50;85.90;;;13.16;55.39;97858.38;4961344;28;20445;-76
2022/05/29 09:38:23;;;;;;;3.50;1.80;;;12.60;85.80;;;13.14;55.42;97860.44;4962950;28;21065;-76
2022/05/29 09:41:01;;;;;;;2.00;1.80;;;12.60;85.70;;;13.14;55.64;97859.63;4963189;28;20446;-76
2022/05/29 09:43:31;;;;;;;3.53;2.00;;;12.40;85.60;;;13.09;54.83;97862.84;4964677;28;20445;-76
2022/05/29 09:46:20;;;;;;;6.20;2.40;;;12.40;85.20;;;13.15;54.53;97861.22;4962602;28;20453;-75
2022/05/29 09:51:54;;;;;;;2.47;1.57;;;12.50;82.00;;;13.32;51.54;97850.06;4963111;28;20492;-75
2022/05/29 09:54:32;;;;;;;5.73;1.70;;;12.60;82.10;;;13.35;49.49;97841.75;4963663;28;20441;-75
2022/05/29 09:57:11;;;;;;;5.03;1.97;;;12.60;80.00;;;13.53;50.59;97844.50;4963210;28;20927;-76
2022/05/29 09:59:45;;;;;;;1.67;1.50;;;12.70;81.40;;;13.61;50.12;97846.84;4962343;28;20484;-76
2022/05/29 10:02:27;;;;;;;2.20;2.00;;;12.90;80.80;;;13.66;51.04;97845.41;4963387;28;20445;-76
2022/05/29 10:05:01;;;;;;;4.20;2.00;;;13.00;82.50;;;13.74;52.89;97851.25;4960848;28;20449;-77
2022/05/29 10:07:36;;;;;;;4.30;2.23;;;13.10;84.80;;;13.78;54.49;97857.66;4959027;28;21111;-76
2022/05/29 10:10:10;;;;;;;4.03;2.43;;;13.20;86.00;;;13.81;54.48;97851.19;4959742;28;20457;-76
2022/05/29 10:12:45;;;;;;;7.07;2.67;;;13.10;86.30;;;13.88;55.86;97847.50;4958770;28;20519;-76
2022/05/29 10:15:36;;;;;;;5.23;2.27;;;13.30;87.40;;;13.90;55.26;97844.66;4958427;28;20959;-76
2022/05/29 10:18:31;;;;;;;4.93;2.53;;;13.20;86.80;;;13.96;56.25;97851.69;4959863;28;20516;-76
2022/05/29 10:21:15;;;;;;;4.70;1.80;;;13.30;87.70;;;14.03;57.02;97839.31;4959668;28;20445;-76
2022/05/29 10:23:52;;;;;;;8.73;2.10;;;13.40;88.20;;;14.07;56.13;97843.13;4958721;28;20445;-76
2022/05/29 10:26:35;;;;;;;3.10;2.17;;;13.30;86.10;;;14.08;54.45;97836.84;4960203;28;20468;-76
2022/05/29 10:29:19;;;;;;;9.40;2.27;;;13.40;85.70;;;14.07;52.98;97837.84;4960830;28;20455;-76
2022/05/29 10:31:51;;;;;;;2.40;1.87;;;13.30;82.40;;;14.13;52.86;97826.47;4959272;28;20452;-76
2022/05/29 10:34:29;;;;;;;3.67;2.53;;;13.30;83.70;;;14.18;53.42;97837.16;4959731;28;21088;-76
2022/05/29 10:37:03;;;;;;;5.50;2.47;;;13.50;85.30;;;14.18;53.47;97837.16;4960005;28;20465;-76
2022/05/29 10:39:35;;;;;;;3.90;2.17;;;13.40;84.90;;;14.15;53.06;97832.34;4960511;28;20829;-76
2022/05/29 10:42:06;;;;;;;5.87;2.03;;;13.30;84.60;;;14.22;54.19;97833.09;4961290;28;20484;-76
2022/05/29 10:44:43;;;;;;;4.37;2.10;;;13.40;86.70;;;14.20;51.74;97827.22;4961156;28;20458;-77
2022/05/29 10:47:35;;;;;;;3.47;1.70;;;13.50;83.50;;;14.24;52.33;97831.03;4961128;28;20860;-75
2022/05/29 10:50:15;;;;;;;4.37;2.20;;;13.50;83.80;;;14.29;52.25;97812.81;4959412;28;20499;-76
2022/05/29 10:53:17;;;;;;;5.87;2.20;;;13.40;83.50;;;14.36;52.98;97824.09;4959298;28;20984;-76
2022/05/29 10:56:02;;;;;;;3.80;2.27;;;13.70;85.00;;;14.37;52.81;97817.03;4960438;28;20464;-76
2022/05/29 10:59:10;;;;;;;4.27;2.10;;;13.70;84.70;;;14.42;54.34;97823.22;4960761;28;20483;-76
2022/05/29 11:05:20;;;;;;;2.07;1.80;;;13.80;84.30;;;14.40;52.37;97816.59;4963038;28;20614;-75
2022/05/29 11:08:21;;;;;;;4.67;2.00;;;13.80;84.00;;;14.45;53.60;97812.28;4962400;28;20556;-76
2022/05/29 11:11:07;;;;;;;3.13;2.03;;;13.80;85.40;;;14.52;52.56;97807.75;4960565;28;20432;-76
2022/05/29 11:14:03;;;;;;;2.90;2.00;;;13.80;83.60;;;14.58;51.45;97803.44;4959475;28;21169;-75
2022/05/29 11:16:53;;;;;;;9.50;1.93;;;14.00;83.70;;;14.60;51.10;97804.84;4963007;28;20461;-75
2022/05/29 11:19:59;;;;;;;3.53;2.00;;;14.00;82.80;;;14.60;48.70;97794.31;4961674;28;20480;-76
2022/05/29 11:22:40;;;;;;;5.83;2.10;;;13.80;79.20;;;14.72;49.49;97791.75;4962088;28;20469;-75
2022/05/29 11:25:35;;;;;;;6.40;1.93;;;14.00;80.90;;;14.80;49.66;97790.66;4958166;28;20944;-75
2022/05/29 11:28:35;;;;;;;128.57;56.50;;;14.00;81.10;;;14.85;49.54;97786.34;4959962;28;20961;-81